Time;durP1;ratioP1;P1;durP2;ratioP2;P2;SDS_P1;SDS_P2;PMS_P1;PMS_P2;Temp;Humidity;BMP_temperature;BMP_pressure;BME280_temperature;BME280_humidity;BME280_pressure;Samples;Min_cycle;Max_cycle;Signal;HPM_P1;HPM_P2
2023/05/30 00:00:17;;;;;;;6.85;3.55;;;;;;;18.76;41.82;96907.69;4883116;29;20041;-78
2023/05/30 00:02:45;;;;;;;4.30;2.65;;;;;;;18.71;42.10;96896.97;4882330;29;20070;-78
2023/05/30 00:05:13;;;;;;;5.28;3.40;;;;;;;18.68;41.83;96905.38;4881061;29;20033;-78
2023/05/30 00:07:42;;;;;;;3.90;2.90;;;;;;;18.65;41.96;96911.09;4882245;29;20053;-78
2023/05/30 00:10:10;;;;;;;4.60;3.13;;;;;;;18.64;42.41;96910.28;4882963;29;20046;-78
2023/05/30 00:12:40;;;;;;;3.92;2.97;;;;;;;18.64;42.26;96914.78;4880085;29;20067;-78
2023/05/30 00:15:10;;;;;;;5.95;3.60;;;;;;;18.59;42.21;96918.09;4863875;29;20048;-78
2023/05/30 00:17:38;;;;;;;3.90;2.85;;;;;;;18.53;42.26;96913.69;4865463;29;20049;-79
2023/05/30 00:20:08;;;;;;;7.57;3.33;;;;;;;18.51;42.67;96911.28;4879730;29;20132;-78
2023/05/30 00:22:38;;;;;;;7.22;3.10;;;;;;;18.51;42.58;96911.28;4879806;29;20029;-78
2023/05/30 00:25:09;;;;;;;3.70;2.92;;;;;;;18.52;43.16;96922.66;4881238;29;20078;-78
2023/05/30 00:27:37;;;;;;;7.20;2.92;;;;;;;18.47;42.89;96920.69;4882667;29;20263;-80
2023/05/30 00:30:06;;;;;;;5.05;2.95;;;;;;;18.42;42.87;96923.19;4883265;29;20068;-78
2023/05/30 00:32:34;;;;;;;3.63;2.90;;;;;;;18.45;42.99;96933.28;4882692;29;20053;-78
2023/05/30 00:35:02;;;;;;;5.00;2.92;;;;;;;18.47;42.68;96925.16;4881638;29;20041;-78
2023/05/30 00:37:32;;;;;;;6.30;3.08;;;;;;;18.49;42.65;96923.09;4879725;29;20101;-78
2023/05/30 00:39:59;;;;;;;5.18;3.00;;;;;;;18.45;42.89;96922.72;4875939;29;20081;-78
2023/05/30 00:42:29;;;;;;;4.07;3.25;;;;;;;18.42;43.13;96923.19;4877171;29;20053;-78
2023/05/30 00:44:57;;;;;;;4.72;3.10;;;;;;;18.40;43.13;96916.53;4877799;29;20582;-78
2023/05/30 00:47:24;;;;;;;5.07;3.20;;;;;;;18.41;43.29;96921.59;4878610;29;20034;-78
2023/05/30 00:49:53;;;;;;;3.95;3.03;;;;;;;18.42;42.84;96925.84;4875426;29;20483;-78
2023/05/30 00:52:21;;;;;;;4.50;2.95;;;;;;;18.40;43.42;96930.53;4875565;29;20053;-78
2023/05/30 00:54:50;;;;;;;6.32;3.10;;;;;;;18.33;43.28;96929.81;4876114;29;20082;-78
2023/05/30 00:57:17;;;;;;;8.95;3.50;;;;;;;18.20;43.55;96928.16;4878297;29;20053;-78
2023/05/30 00:59:47;;;;;;;5.78;3.53;;;;;;;18.09;44.05;96918.34;4878421;29;20078;-78
2023/05/30 01:02:16;;;;;;;3.60;2.88;;;;;;;18.07;43.76;96925.66;4882725;29;20049;-78
2023/05/30 01:04:44;;;;;;;5.70;3.75;;;;;;;18.06;44.01;96924.88;4879423;29;20053;-80
2023/05/30 01:07:12;;;;;;;4.30;3.33;;;;;;;18.00;44.16;96931.03;4879235;29;20282;-78
2023/05/30 01:09:40;;;;;;;5.45;3.38;;;;;;;17.91;44.28;96922.59;4878848;29;20171;-78
2023/05/30 01:12:14;;;;;;;4.90;3.22;;;;;;;17.88;45.39;96916.94;4880445;29;20046;-78
2023/05/30 01:14:50;;;;;;;6.10;3.25;;;;;;;17.83;44.76;96925.53;4878855;29;20050;-78
2023/05/30 01:17:23;;;;;;;3.50;2.95;;;;;;;17.80;45.29;96914.56;4872873;29;20502;-78
2023/05/30 01:20:09;;;;;;;;;;;;;;;17.74;44.82;96915.47;4873120;29;20049;-78
2023/05/30 01:22:49;;;;;;;4.18;3.78;;;;;;;17.64;45.27;96922.03;4875568;29;19928;-78
2023/05/30 01:25:26;;;;;;;5.90;3.78;;;;;;;17.57;45.40;96904.66;4877002;29;20445;-78
2023/05/30 01:28:09;;;;;;;4.35;3.40;;;;;;;17.55;45.56;96906.72;4877005;29;20084;-78
2023/05/30 01:30:39;;;;;;;5.90;3.35;;;;;;;17.50;45.53;96910.00;4877660;29;20064;-78
2023/05/30 01:33:08;;;;;;;8.65;3.40;;;;;;;17.48;45.79;96904.94;4879284;29;20057;-78
2023/05/30 01:35:36;;;;;;;4.63;3.20;;;;;;;17.48;45.54;96901.50;4878890;29;20137;-78
2023/05/30 01:38:04;;;;;;;6.63;3.60;;;;;;;17.39;45.60;96900.19;4879030;29;20054;-78
2023/05/30 01:40:32;;;;;;;4.38;3.50;;;;;;;17.30;45.95;96908.34;4878958;29;20497;-78
2023/05/30 01:43:05;;;;;;;4.40;3.22;;;;;;;17.24;46.34;96906.59;4879212;29;20053;-78
2023/05/30 01:45:44;;;;;;;5.07;3.47;;;;;;;17.24;46.22;96903.94;4879246;29;20082;-78
2023/05/30 01:48:19;;;;;;;5.15;3.00;;;;;;;17.27;46.58;96897.44;4878764;29;20053;-78
2023/05/30 01:50:50;;;;;;;5.53;2.78;;;;;;;17.29;46.54;96898.03;4878918;29;20085;-78
2023/05/30 01:53:23;;;;;;;6.15;3.38;;;;;;;17.35;46.69;96896.38;4878607;29;20090;-78
2023/05/30 01:55:55;;;;;;;4.70;3.22;;;;;;;17.38;46.22;96902.03;4878019;29;20086;-78
2023/05/30 01:58:23;;;;;;;6.15;3.28;;;;;;;17.45;46.67;96899.31;4879108;29;20053;-78
2023/05/30 02:00:56;;;;;;;3.33;3.03;;;;;;;17.45;46.36;96896.69;4879248;29;20078;-78
2023/05/30 02:03:24;;;;;;;7.00;3.55;;;;;;;17.41;46.17;96898.94;4878501;29;20057;-78
2023/05/30 02:05:52;;;;;;;6.88;3.75;;;;;;;17.35;46.50;96899.78;4877553;29;20140;-78
2023/05/30 02:08:20;;;;;;;4.63;3.75;;;;;;;17.35;46.51;96893.72;4878081;29;20081;-78
2023/05/30 02:10:48;;;;;;;8.50;3.40;;;;;;;17.36;46.50;96904.06;4877140;29;20060;-78
2023/05/30 02:13:16;;;;;;;6.15;3.72;;;;;;;17.34;46.38;96907.91;4877021;29;20053;-78
2023/05/30 02:15:44;;;;;;;5.82;3.30;;;;;;;17.33;46.97;96903.69;4876666;29;20106;-78
2023/05/30 02:18:14;;;;;;;5.38;3.70;;;;;;;17.29;47.33;96909.41;4878398;29;20049;-78
2023/05/30 02:20:41;;;;;;;5.93;3.60;;;;;;;17.22;46.76;96905.19;4881753;29;20079;-78
2023/05/30 02:23:09;;;;;;;6.25;3.05;;;;;;;17.19;47.07;96914.34;4879831;29;20498;-78
2023/05/30 02:25:37;;;;;;;6.05;3.10;;;;;;;17.14;47.00;96906.25;4873997;29;20113;-78
2023/05/30 02:28:05;;;;;;;3.70;3.40;;;;;;;17.01;47.16;96909.00;4875032;29;20052;-78
2023/05/30 02:30:33;;;;;;;6.70;4.05;;;;;;;16.90;47.75;96899.97;4873879;29;20054;-78
2023/05/30 02:33:01;;;;;;;3.60;3.17;;;;;;;16.82;47.95;96901.03;4874321;29;20109;-78
2023/05/30 02:35:30;;;;;;;5.18;4.03;;;;;;;16.78;47.85;96901.66;4874853;29;20395;-78
2023/05/30 02:37:57;;;;;;;6.18;3.80;;;;;;;16.74;48.26;96889.94;4873859;29;20079;-78
2023/05/30 02:40:25;;;;;;;8.25;3.47;;;;;;;16.72;48.02;96892.78;4877277;29;20049;-78
2023/05/30 02:42:53;;;;;;;3.72;3.13;;;;;;;16.68;48.10;96888.94;4876147;29;20083;-78
2023/05/30 02:45:21;;;;;;;5.80;3.10;;;;;;;16.73;48.79;96889.13;4876194;29;20057;-78
2023/05/30 02:47:48;;;;;;;4.20;3.10;;;;;;;16.78;48.16;96891.13;4875573;29;20130;-78
2023/05/30 02:50:16;;;;;;;3.90;2.78;;;;;;;16.76;48.15;96891.31;4875261;29;20086;-78
2023/05/30 02:52:45;;;;;;;9.63;3.20;;;;;;;16.72;48.06;96892.78;4874711;29;20057;-78
2023/05/30 02:55:13;;;;;;;5.18;2.85;;;;;;;16.66;48.12;96904.16;4875383;29;20053;-78
2023/05/30 02:57:42;;;;;;;7.10;3.95;;;;;;;16.60;48.43;96897.13;4875709;29;20078;-78
2023/05/30 03:00:13;;;;;;;6.22;3.53;;;;;;;16.55;48.08;96902.19;4874943;29;20050;-78
2023/05/30 03:02:41;;;;;;;7.43;3.20;;;;;;;16.46;48.36;96905.09;4873848;29;20310;-78
2023/05/30 03:05:10;;;;;;;6.53;3.85;;;;;;;16.41;48.64;96907.53;4873629;29;20060;-78
2023/05/30 03:07:38;;;;;;;5.72;3.55;;;;;;;16.38;48.84;96907.97;4873106;29;20144;-78
2023/05/30 03:10:07;;;;;;;5.13;3.53;;;;;;;16.40;49.15;96903.31;4875557;29;20050;-78
2023/05/30 03:12:35;;;;;;;5.07;3.72;;;;;;;16.40;48.89;96905.94;4881549;29;20086;-78
2023/05/30 03:15:04;;;;;;;5.47;3.50;;;;;;;16.40;48.99;96911.22;4926561;23;20053;-78
2023/05/30 03:17:32;;;;;;;5.82;3.35;;;;;;;16.43;49.34;96916.03;4880703;29;20061;-78
2023/05/30 03:20:00;;;;;;;7.00;3.55;;;;;;;16.44;48.99;96912.41;4880351;29;20059;-78
2023/05/30 03:22:27;;;;;;;4.40;3.17;;;;;;;16.47;49.64;96911.19;4877997;29;20110;-78
2023/05/30 03:24:55;;;;;;;5.65;3.70;;;;;;;16.51;49.16;96912.38;4874782;29;20086;-78
2023/05/30 03:27:24;;;;;;;3.97;3.17;;;;;;;16.55;49.64;96913.56;4869742;29;20082;-78
2023/05/30 03:29:53;;;;;;;8.30;3.60;;;;;;;16.60;49.06;96915.56;4869463;29;20073;-78
2023/05/30 03:32:20;;;;;;;4.88;3.75;;;;;;;16.60;49.07;96916.34;4869890;29;20102;-78
2023/05/30 03:34:48;;;;;;;5.68;3.83;;;;;;;16.62;48.93;96914.31;4869629;29;20053;-78
2023/05/30 03:37:16;;;;;;;6.45;3.53;;;;;;;16.58;49.10;96917.59;4871326;29;20062;-78
2023/05/30 03:39:44;;;;;;;4.40;3.33;;;;;;;16.56;49.70;96930.16;4869934;29;20045;-78
2023/05/30 03:42:11;;;;;;;6.10;3.88;;;;;;;16.55;49.27;96925.91;4869996;29;20061;-78
2023/05/30 03:44:40;;;;;;;8.95;3.95;;;;;;;16.45;49.39;96923.75;4870529;29;20096;-78
2023/05/30 03:47:08;;;;;;;7.45;3.80;;;;;;;16.40;49.53;96921.75;4871090;29;20064;-78
2023/05/30 03:49:36;;;;;;;6.72;3.42;;;;;;;16.41;49.58;96923.34;4870209;29;20053;-78
2023/05/30 03:52:04;;;;;;;5.65;3.72;;;;;;;16.46;49.62;96920.91;4870703;29;20057;-78
2023/05/30 03:54:32;;;;;;;7.43;3.85;;;;;;;16.46;49.49;96913.00;4871365;29;20049;-78
2023/05/30 03:57:00;;;;;;;8.00;4.13;;;;;;;16.38;49.48;96918.50;4872364;29;20078;-78
2023/05/30 03:59:28;;;;;;;7.47;4.10;;;;;;;16.33;49.66;96915.69;4870259;29;20445;-80
2023/05/30 04:01:57;;;;;;;6.85;3.72;;;;;;;16.27;49.88;96921.81;4874793;29;20049;-78
2023/05/30 04:04:25;;;;;;;6.13;3.78;;;;;;;16.23;50.16;96920.63;4879329;29;20054;-78
2023/05/30 04:06:52;;;;;;;7.85;3.63;;;;;;;16.17;49.89;96926.72;4879181;29;20053;-78
2023/05/30 04:09:20;;;;;;;5.25;3.45;;;;;;;16.09;50.09;96924.31;4874262;29;20050;-78
2023/05/30 04:11:48;;;;;;;4.82;3.60;;;;;;;16.07;50.39;96916.63;4871474;29;20046;-78
2023/05/30 04:14:16;;;;;;;6.28;3.60;;;;;;;16.06;50.12;96920.28;4868484;29;20077;-78
2023/05/30 04:16:43;;;;;;;6.03;3.72;;;;;;;16.05;50.09;96930.00;4866124;29;20073;-78
2023/05/30 04:19:12;;;;;;;7.85;3.83;;;;;;;16.08;50.18;96927.97;4867376;29;20553;-78
2023/05/30 04:21:40;;;;;;;7.60;4.10;;;;;;;16.11;50.06;96935.44;4866936;29;20101;-78
2023/05/30 04:24:08;;;;;;;6.15;3.47;;;;;;;16.12;49.83;96942.31;4867686;29;20079;-78
2023/05/30 04:26:37;;;;;;;7.60;3.45;;;;;;;16.12;49.89;96940.50;4869103;29;20055;-78
2023/05/30 04:29:08;;;;;;;5.82;3.38;;;;;;;16.15;49.75;96944.53;4869920;29;20050;-78
2023/05/30 04:31:36;;;;;;;5.55;3.95;;;;;;;16.14;49.94;96938.47;4869568;29;20060;-78
2023/05/30 04:34:04;;;;;;;6.80;3.35;;;;;;;16.12;50.22;96944.97;4868717;29;20454;-78
2023/05/30 04:36:36;;;;;;;8.68;3.53;;;;;;;16.13;50.09;96949.19;4870304;29;20074;-78
2023/05/30 04:39:04;;;;;;;6.97;4.00;;;;;;;16.14;49.73;96942.94;4870786;29;20050;-76
2023/05/30 04:41:32;;;;;;;6.25;4.18;;;;;;;16.15;49.86;96941.91;4863081;29;20101;-78
2023/05/30 04:44:00;;;;;;;5.28;3.30;;;;;;;16.20;50.40;96940.28;4886214;29;20053;-78
2023/05/30 04:46:29;;;;;;;12.02;3.83;;;;;;;16.29;49.93;96943.47;4883609;29;20084;-77
2023/05/30 04:49:00;;;;;;;5.53;3.20;;;;;;;16.36;50.16;96949.50;4877757;29;20054;-78
2023/05/30 04:51:30;;;;;;;9.52;3.90;;;;;;;16.36;49.35;96948.72;4870715;29;20060;-78
2023/05/30 04:54:00;;;;;;;6.75;3.40;;;;;;;16.34;49.29;96948.09;4870257;29;20078;-78
2023/05/30 04:56:27;;;;;;;8.30;3.47;;;;;;;16.35;49.57;96947.88;4869388;29;20050;-78
2023/05/30 04:58:57;;;;;;;7.80;3.30;;;;;;;16.36;49.34;96956.59;4868817;29;20078;-78
2023/05/30 05:01:25;;;;;;;6.03;3.50;;;;;;;16.33;49.43;96952.53;4868418;29;20126;-78
2023/05/30 05:03:53;;;;;;;5.63;3.97;;;;;;;16.32;49.26;96950.13;4864055;29;20148;-78
2023/05/30 05:06:21;;;;;;;7.88;3.58;;;;;;;16.29;49.68;96961.91;4879586;29;20056;-77
2023/05/30 05:08:49;;;;;;;6.70;3.78;;;;;;;16.29;49.37;96961.91;4883066;29;20072;-78
2023/05/30 05:11:18;;;;;;;12.80;5.65;;;;;;;16.32;49.46;96961.47;4875916;29;20053;-78
2023/05/30 05:13:45;;;;;;;8.65;4.13;;;;;;;16.36;49.23;96967.13;4868328;29;20045;-79
2023/05/30 05:16:13;;;;;;;7.75;3.72;;;;;;;16.41;49.08;96962.84;4874069;29;20114;-78
2023/05/30 05:18:41;;;;;;;7.82;3.95;;;;;;;16.47;48.99;96966.47;4878856;29;20088;-78
2023/05/30 05:21:09;;;;;;;9.07;3.75;;;;;;;16.46;49.04;96968.31;4872393;29;20046;-79
2023/05/30 05:23:36;;;;;;;10.82;3.78;;;;;;;16.44;49.01;96969.50;4861814;29;20080;-78
2023/05/30 05:26:04;;;;;;;4.97;3.67;;;;;;;16.43;49.43;96973.97;4864799;29;20058;-78
2023/05/30 05:28:33;;;;;;;4.95;2.85;;;;;;;16.42;49.22;96977.63;4867725;29;20579;-78
2023/05/30 05:31:01;;;;;;;7.43;3.40;;;;;;;16.44;49.24;96970.34;4864242;29;20113;-78
2023/05/30 05:33:29;;;;;;;9.20;3.67;;;;;;;16.47;48.91;96980.44;4862796;29;20060;-78
2023/05/30 05:35:57;;;;;;;7.63;3.40;;;;;;;16.52;48.75;96976.38;4865830;29;20059;-79
2023/05/30 05:38:26;;;;;;;5.07;3.50;;;;;;;16.56;48.78;96977.56;4859810;29;20045;-78
2023/05/30 05:40:53;;;;;;;8.90;4.28;;;;;;;16.58;49.07;96978.16;4859866;29;20129;-78
2023/05/30 05:43:21;;;;;;;4.93;3.13;;;;;;;16.58;48.92;96980.81;4860882;29;20496;-78
2023/05/30 05:45:51;;;;;;;13.15;4.68;;;;;;;16.54;48.52;96992.78;4861870;29;20057;-78
2023/05/30 05:48:19;;;;;;;6.88;3.50;;;;;;;16.48;48.85;96987.31;4863539;29;20148;-77
2023/05/30 05:50:47;;;;;;;7.65;3.40;;;;;;;16.50;49.15;96987.09;4863131;29;20078;-78
2023/05/30 05:53:14;;;;;;;6.03;3.10;;;;;;;16.55;49.06;96991.75;4863317;29;20077;-78
2023/05/30 05:55:44;;;;;;;5.25;3.70;;;;;;;16.58;48.76;96993.97;4862921;29;20451;-78
2023/05/30 05:58:12;;;;;;;5.25;3.72;;;;;;;16.62;48.99;96992.53;4863322;29;20053;-78
2023/05/30 06:00:39;;;;;;;4.97;3.22;;;;;;;16.63;48.59;96984.41;4862715;29;20057;-78
2023/05/30 06:03:08;;;;;;;8.15;4.03;;;;;;;16.62;48.36;96993.34;4862661;29;20060;-78
2023/05/30 06:05:36;;;;;;;8.13;3.70;;;;;;;16.56;48.66;96994.16;4862412;29;20057;-78
2023/05/30 06:08:04;;;;;;;7.28;3.60;;;;;;;16.53;48.63;97004.31;4862782;29;20050;-78
2023/05/30 06:10:32;;;;;;;4.40;3.30;;;;;;;16.52;48.93;97000.06;4862952;29;20590;-77
2023/05/30 06:13:00;;;;;;;8.15;3.60;;;;;;;16.54;48.65;97009.38;4862921;29;20087;-78
2023/05/30 06:15:27;;;;;;;5.00;2.97;;;;;;;16.50;48.66;97010.00;4862288;29;20057;-78
2023/05/30 06:17:55;;;;;;;5.95;3.50;;;;;;;16.48;48.59;97007.56;4862623;29;20214;-78
2023/05/30 06:20:24;;;;;;;6.13;3.22;;;;;;;16.52;48.67;97007.97;4862692;29;20053;-78
2023/05/30 06:22:52;;;;;;;7.68;3.17;;;;;;;16.53;48.82;97006.94;4862881;29;20136;-78
2023/05/30 06:25:19;;;;;;;6.68;3.63;;;;;;;16.53;48.98;97012.22;4862227;29;20088;-78
2023/05/30 06:27:47;;;;;;;7.80;3.55;;;;;;;16.52;48.99;97010.59;4862542;29;20091;-78
2023/05/30 06:30:14;;;;;;;5.45;3.60;;;;;;;16.55;48.56;97020.72;4862665;29;20061;-78
2023/05/30 06:32:42;;;;;;;5.45;3.50;;;;;;;16.58;49.01;97017.69;4862074;29;20536;-78
2023/05/30 06:35:10;;;;;;;6.78;2.80;;;;;;;16.65;48.90;97015.81;4862593;29;20490;-78
2023/05/30 06:37:39;;;;;;;7.32;3.00;;;;;;;16.70;48.61;97023.88;4862216;29;20550;-78
2023/05/30 06:40:08;;;;;;;7.43;3.28;;;;;;;16.75;48.71;97013.53;4862359;29;20510;-78
2023/05/30 06:42:36;;;;;;;6.45;3.80;;;;;;;16.78;48.01;97014.94;4861987;29;20050;-78
2023/05/30 06:45:04;;;;;;;6.80;3.63;;;;;;;16.82;48.50;97019.59;4861751;29;20072;-78
2023/05/30 06:47:32;;;;;;;5.43;3.63;;;;;;;16.88;48.42;97020.59;4862260;29;20089;-78
2023/05/30 06:49:59;;;;;;;6.57;2.85;;;;;;;16.95;48.59;97021.38;4862203;29;20148;-78
2023/05/30 06:52:27;;;;;;;9.15;3.33;;;;;;;17.02;48.28;97026.59;4861958;29;20075;-78
2023/05/30 06:54:56;;;;;;;5.75;2.95;;;;;;;17.11;48.63;97043.75;4861791;29;20114;-78
2023/05/30 06:57:25;;;;;;;5.00;3.20;;;;;;;17.22;48.04;97035.16;4861000;29;20054;-78
2023/05/30 06:59:52;;;;;;;6.15;3.58;;;;;;;17.33;47.79;97038.16;4862111;29;20122;-78
2023/05/30 07:02:20;;;;;;;6.10;3.53;;;;;;;17.38;47.72;97040.94;4861522;29;20583;-78
2023/05/30 07:04:48;;;;;;;4.93;3.58;;;;;;;17.46;47.51;97045.97;4861656;29;20459;-78
2023/05/30 07:07:15;;;;;;;7.75;3.42;;;;;;;17.50;47.80;97047.16;4861970;29;20049;-78
2023/05/30 07:09:43;;;;;;;5.43;3.40;;;;;;;17.58;47.92;97044.25;4861690;29;20057;-78
2023/05/30 07:12:12;;;;;;;5.15;3.28;;;;;;;17.64;47.24;97038.09;4861549;29;20122;-78
2023/05/30 07:14:40;;;;;;;7.10;3.60;;;;;;;17.69;47.02;97045.41;4861263;29;20122;-79
2023/05/30 07:17:07;;;;;;;7.70;3.40;;;;;;;17.77;47.07;97037.19;4861675;29;20053;-78
2023/05/30 07:19:35;;;;;;;6.93;3.03;;;;;;;17.87;47.07;97047.28;4861450;29;20049;-78
2023/05/30 07:22:03;;;;;;;4.65;3.63;;;;;;;17.95;46.63;97043.56;4861777;29;20054;-78
2023/05/30 07:24:30;;;;;;;6.43;3.22;;;;;;;18.02;46.64;97039.03;4861079;29;20114;-78
2023/05/30 07:26:58;;;;;;;5.50;3.63;;;;;;;18.10;45.93;97047.47;4861452;29;20053;-78
2023/05/30 07:29:27;;;;;;;5.20;3.85;;;;;;;18.15;45.59;97051.28;4861279;29;20570;-78
2023/05/30 07:31:55;;;;;;;6.70;3.30;;;;;;;18.17;46.08;97039.50;4861605;29;20125;-78
2023/05/30 07:34:22;;;;;;;6.75;3.15;;;;;;;18.22;46.31;97034.34;4861101;29;20049;-78
2023/05/30 07:36:50;;;;;;;3.28;2.88;;;;;;;18.28;46.18;97037.97;4861364;29;20057;-78
2023/05/30 07:39:18;;;;;;;7.80;3.22;;;;;;;18.34;45.77;97031.78;4861415;29;20064;-78
2023/05/30 07:41:45;;;;;;;5.13;3.20;;;;;;;18.42;46.32;97034.13;4861383;29;20050;-78
2023/05/30 07:44:13;;;;;;;6.82;2.90;;;;;;;18.51;46.10;97024.88;4861389;29;20050;-78
2023/05/30 07:46:42;;;;;;;6.00;3.58;;;;;;;18.59;45.48;97028.25;4860795;29;20146;-78
2023/05/30 07:49:10;;;;;;;4.50;2.92;;;;;;;18.69;45.81;97023.22;4861217;29;20426;-78
2023/05/30 07:51:37;;;;;;;4.82;3.20;;;;;;;18.82;45.94;97012.53;4860655;29;20518;-78
2023/05/30 07:54:05;;;;;;;8.35;3.58;;;;;;;18.91;45.33;97019.13;4861200;29;20136;-78
2023/05/30 07:56:33;;;;;;;7.22;3.50;;;;;;;18.97;44.80;97014.75;4860875;29;20055;-78
2023/05/30 07:59:00;;;;;;;4.43;3.03;;;;;;;19.05;45.37;97018.94;4861073;29;20113;-78
2023/05/30 08:01:28;;;;;;;6.40;3.15;;;;;;;19.15;45.17;97019.19;4861157;29;20486;-78
2023/05/30 08:03:57;;;;;;;7.20;3.47;;;;;;;19.25;44.93;97022.09;4860859;29;20478;-78
2023/05/30 08:06:25;;;;;;;4.72;3.33;;;;;;;19.33;44.47;97021.75;4860871;29;20140;-79
2023/05/30 08:08:53;;;;;;;4.55;3.50;;;;;;;19.40;44.02;97024.31;4861036;29;20054;-78
2023/05/30 08:11:20;;;;;;;5.22;3.30;;;;;;;19.45;44.10;97018.34;4861383;29;20061;-78
2023/05/30 08:13:48;;;;;;;5.13;2.67;;;;;;;19.50;43.82;97021.91;4865803;29;20061;-79
2023/05/30 08:16:16;;;;;;;7.28;3.33;;;;;;;19.59;44.23;97017.09;4876336;29;20116;-78
2023/05/30 08:18:45;;;;;;;9.73;3.50;;;;;;;19.68;43.93;97018.38;4871847;29;20058;-79
2023/05/30 08:21:14;;;;;;;6.93;3.75;;;;;;;19.76;44.04;97019.88;4861803;29;20049;-78
2023/05/30 08:23:42;;;;;;;6.53;3.22;;;;;;;19.84;43.97;97019.53;4860944;29;20161;-79
2023/05/30 08:26:10;;;;;;;4.75;3.00;;;;;;;19.93;43.72;97017.34;4860876;29;20498;-79
2023/05/30 08:28:37;;;;;;;6.40;3.58;;;;;;;19.97;43.54;97018.50;4860656;29;20502;-79
2023/05/30 08:31:05;;;;;;;7.07;3.05;;;;;;;19.98;43.36;97022.75;4860940;29;20148;-79
2023/05/30 08:33:34;;;;;;;5.57;3.25;;;;;;;20.00;42.82;97022.53;4861127;29;20149;-79
2023/05/30 08:36:01;;;;;;;6.72;3.03;;;;;;;20.07;42.72;97026.69;4861374;29;20057;-79
2023/05/30 08:38:31;;;;;;;4.95;2.67;;;;;;;20.17;43.70;97023.44;4870511;29;20057;-79
2023/05/30 08:40:59;;;;;;;4.72;3.15;;;;;;;20.25;43.30;97022.28;4880416;29;20142;-79
2023/05/30 08:43:27;;;;;;;4.32;3.35;;;;;;;20.27;42.62;97028.13;4880475;29;20053;-79
2023/05/30 08:45:55;;;;;;;12.35;2.75;;;;;;;20.29;42.51;97023.41;4870511;29;20060;-79
2023/05/30 08:48:24;;;;;;;4.82;3.03;;;;;;;20.34;42.66;97023.53;4861522;29;20144;-79
2023/05/30 08:50:53;;;;;;;3.97;2.80;;;;;;;20.38;42.76;97035.28;4861502;29;20060;-79
2023/05/30 08:53:38;;;;;;;7.60;3.05;;;;;;;20.41;42.84;97028.69;4861288;29;20084;-79
2023/05/30 08:56:08;;;;;;;10.00;3.35;;;;;;;20.44;42.58;97029.03;4861219;29;20114;-79
2023/05/30 08:58:40;;;;;;;4.63;3.67;;;;;;;20.50;42.32;97033.38;4862647;29;20049;-79
2023/05/30 09:01:10;;;;;;;6.68;3.25;;;;;;;20.55;41.86;97028.22;4862439;29;20105;-79
2023/05/30 09:03:42;;;;;;;4.63;2.90;;;;;;;20.62;42.45;97027.28;4862908;29;20066;-79
2023/05/30 09:06:12;;;;;;;5.93;2.83;;;;;;;20.71;42.09;97028.53;4862501;29;20197;-78
2023/05/30 09:08:43;;;;;;;4.85;3.10;;;;;;;20.80;41.69;97021.00;4862750;29;20114;-78
2023/05/30 09:11:11;;;;;;;6.97;3.05;;;;;;;20.86;41.85;97020.88;4863560;29;20056;-78
2023/05/30 09:13:40;;;;;;;4.57;2.78;;;;;;;20.93;41.92;97016.22;4863388;29;20395;-78
2023/05/30 09:16:07;;;;;;;6.70;3.28;;;;;;;21.00;41.46;97024.03;4863461;29;20057;-78
2023/05/30 09:18:35;;;;;;;6.15;3.25;;;;;;;21.04;40.81;97019.06;4864911;29;20077;-78
2023/05/30 09:21:03;;;;;;;6.90;3.05;;;;;;;21.06;41.58;97023.09;4865561;29;20513;-78
2023/05/30 09:23:31;;;;;;;5.32;3.42;;;;;;;21.12;41.07;97024.78;4866783;29;20085;-78
2023/05/30 09:26:01;;;;;;;7.70;2.90;;;;;;;21.18;40.66;97029.13;4867576;29;20045;-78
2023/05/30 09:28:29;;;;;;;7.00;3.30;;;;;;;21.24;40.53;97021.25;4867157;29;20125;-78
2023/05/30 09:30:58;;;;;;;6.03;3.00;;;;;;;21.33;41.13;97025.13;4867090;29;20053;-78
2023/05/30 09:33:42;;;;;;;4.80;2.80;;;;;;;21.48;41.18;97035.22;4867329;29;20060;-78
2023/05/30 09:36:12;;;;;;;12.53;3.93;;;;;;;21.60;40.75;97035.94;4868684;29;20122;-78
2023/05/30 09:38:39;;;;;;;4.40;3.10;;;;;;;21.70;40.32;97030.78;4869672;29;20057;-78
2023/05/30 09:41:08;;;;;;;5.28;3.10;;;;;;;21.74;40.48;97031.91;4870673;29;20092;-78
2023/05/30 09:43:37;;;;;;;7.80;3.30;;;;;;;21.78;39.87;97041.03;4871212;29;20518;-78
2023/05/30 09:46:06;;;;;;;4.75;3.17;;;;;;;21.83;39.52;97034.19;4886509;29;20061;-78
2023/05/30 09:48:34;;;;;;;6.65;3.25;;;;;;;21.89;39.77;97027.91;4886653;29;20057;-78
2023/05/30 09:51:02;;;;;;;6.95;3.85;;;;;;;21.97;39.41;97030.13;4878169;29;20090;-78
2023/05/30 09:53:33;;;;;;;3.30;2.83;;;;;;;22.07;38.80;97027.63;4868153;29;20057;-78
2023/05/30 09:56:02;;;;;;;4.68;2.88;;;;;;;22.14;39.31;97025.59;4869021;29;20054;-79
2023/05/30 09:58:32;;;;;;;5.03;3.03;;;;;;;22.19;39.29;97024.84;4868963;29;20057;-78
2023/05/30 10:00:59;;;;;;;7.53;3.42;;;;;;;22.24;38.93;97022.31;4869272;29;20110;-79
2023/05/30 10:03:44;;;;;;;6.63;3.28;;;;;;;22.29;38.93;97017.03;4870593;29;20125;-78
2023/05/30 10:06:13;;;;;;;7.07;3.03;;;;;;;22.34;39.42;97018.97;4869467;29;20510;-78
2023/05/30 10:08:43;;;;;;;4.55;3.00;;;;;;;22.42;38.52;97011.34;4868489;29;20054;-78
2023/05/30 10:11:12;;;;;;;4.15;2.70;;;;;;;22.49;38.14;97021.81;4868305;29;20518;-79
2023/05/30 10:13:42;;;;;;;6.32;3.45;;;;;;;22.52;38.26;97018.66;4868643;29;20113;-79
2023/05/30 10:16:12;;;;;;;4.00;2.72;;;;;;;22.57;38.22;97018.72;4868341;29;20583;-78
2023/05/30 10:18:44;;;;;;;6.50;3.60;;;;;;;22.57;37.49;97021.38;4867895;29;20050;-78
2023/05/30 10:21:12;;;;;;;;;;;;;;;22.61;38.36;97003.09;4868099;29;20050;-79
2023/05/30 10:23:41;;;;;;;5.75;3.05;;;;;;;22.65;38.09;97004.16;4865965;29;19931;-79
2023/05/30 10:26:13;;;;;;;6.20;3.55;;;;;;;22.68;37.18;97010.88;4867029;29;20057;-78
2023/05/30 10:28:47;;;;;;;6.95;3.20;;;;;;;22.67;37.68;97006.59;4867075;29;20050;-79
2023/05/30 10:31:15;;;;;;;5.13;3.38;;;;;;;22.73;37.92;97005.59;4866412;29;20088;-79
2023/05/30 10:33:47;;;;;;;5.63;3.05;;;;;;;22.81;37.84;96997.97;4866634;29;20054;-79
2023/05/30 10:36:24;;;;;;;9.05;3.28;;;;;;;22.86;37.34;96999.09;4864768;29;20054;-79
2023/05/30 10:38:58;;;;;;;5.05;2.80;;;;;;;22.86;36.63;97005.19;4864860;29;20111;-79
2023/05/30 10:41:34;;;;;;;5.50;2.90;;;;;;;22.92;36.56;96998.88;4864708;29;20057;-79
2023/05/30 10:44:22;;;;;;;4.95;3.55;;;;;;;22.94;36.52;96999.44;4864019;29;20049;-79
2023/05/30 10:46:58;;;;;;;3.67;2.83;;;;;;;22.94;36.41;96996.78;4863013;29;20053;-79
2023/05/30 10:49:27;;;;;;;6.70;3.58;;;;;;;22.92;36.41;96998.88;4863438;29;20114;-79
2023/05/30 10:52:03;;;;;;;4.68;3.72;;;;;;;22.90;35.45;96995.66;4863585;29;20061;-79
2023/05/30 10:54:32;;;;;;;4.30;2.92;;;;;;;22.94;36.43;96998.63;4863904;29;20053;-78
2023/05/30 10:57:01;;;;;;;9.38;3.10;;;;;;;22.97;36.17;96985.63;4864044;29;20084;-79
2023/05/30 10:59:30;;;;;;;5.97;3.13;;;;;;;23.04;36.38;96999.53;4863828;29;20077;-79
2023/05/30 11:02:00;;;;;;;3.13;2.60;;;;;;;23.12;35.63;97000.16;4863347;29;20100;-79
2023/05/30 11:04:34;;;;;;;5.60;3.03;;;;;;;23.19;36.07;96998.88;4862931;29;20049;-79
2023/05/30 11:07:12;;;;;;;7.25;3.15;;;;;;;23.24;35.64;96987.47;4862482;29;20057;-79
2023/05/30 11:09:41;;;;;;;6.65;3.00;;;;;;;23.28;35.98;96991.25;4861959;29;20114;-80
2023/05/30 11:12:14;;;;;;;5.53;3.20;;;;;;;23.31;35.86;96982.78;4863793;29;20057;-79
2023/05/30 11:14:55;;;;;;;9.88;2.83;;;;;;;23.36;35.66;96988.13;4863652;29;20097;-79
2023/05/30 11:17:29;;;;;;;5.63;3.00;;;;;;;23.37;35.04;96979.06;4862477;29;20141;-79
2023/05/30 11:20:07;;;;;;;7.93;2.88;;;;;;;23.38;35.28;96983.34;4862006;29;20079;-79
2023/05/30 11:22:35;;;;;;;4.60;3.00;;;;;;;23.40;35.44;96981.25;4861624;29;20498;-79
2023/05/30 11:25:22;;;;;;;4.45;2.85;;;;;;;23.40;34.95;96975.91;4861552;29;20049;-79
2023/05/30 11:28:18;;;;;;;5.95;3.20;;;;;;;23.36;35.32;96976.69;4861816;29;20050;-79
2023/05/30 11:30:48;;;;;;;6.70;2.92;;;;;;;23.37;35.33;96978.28;4829446;29;20053;-80
2023/05/30 11:33:17;;;;;;;4.53;3.15;;;;;;;23.38;34.89;96978.03;4862077;29;20061;-80
2023/05/30 11:35:49;;;;;;;5.22;2.80;;;;;;;23.42;34.99;96970.34;4861567;29;20495;-80
2023/05/30 11:38:20;;;;;;;4.20;2.60;;;;;;;23.44;34.53;96969.03;4861554;29;20070;-80
2023/05/30 11:40:49;;;;;;;4.40;2.88;;;;;;;23.42;34.86;96968.47;4861390;29;20136;-80
2023/05/30 11:43:17;;;;;;;7.43;3.40;;;;;;;23.43;34.95;96967.41;4861166;29;20049;-81